sensor_id;sensor_type;location;lat;lon;timestamp;P1;durP1;ratioP1;P2;durP2;ratioP2
6519;SDS011;3293;51.690;5.982;2024-01-06T00:02:28;38.90;;;23.17;;
6519;SDS011;3293;51.690;5.982;2024-01-06T00:07:28;38.53;;;23.23;;
6519;SDS011;3293;51.690;5.982;2024-01-06T00:12:28;36.10;;;22.07;;
6519;SDS011;3293;51.690;5.982;2024-01-06T00:17:28;40.83;;;22.07;;
6519;SDS011;3293;51.690;5.982;2024-01-06T00:22:28;42.30;;;22.40;;
6519;SDS011;3293;51.690;5.982;2024-01-06T00:27:28;40.60;;;21.60;;
6519;SDS011;3293;51.690;5.982;2024-01-06T00:32:28;38.90;;;20.37;;
6519;SDS011;3293;51.690;5.982;2024-01-06T00:37:28;35.77;;;19.70;;
6519;SDS011;3293;51.690;5.982;2024-01-06T00:42:28;33.23;;;19.80;;
6519;SDS011;3293;51.690;5.982;2024-01-06T00:47:28;38.20;;;19.30;;
6519;SDS011;3293;51.690;5.982;2024-01-06T00:52:28;36.70;;;18.37;;
6519;SDS011;3293;51.690;5.982;2024-01-06T00:57:28;33.17;;;18.50;;
6519;SDS011;3293;51.690;5.982;2024-01-06T01:02:28;29.50;;;15.67;;
6519;SDS011;3293;51.690;5.982;2024-01-06T01:07:28;28.37;;;15.80;;
6519;SDS011;3293;51.690;5.982;2024-01-06T01:12:28;30.73;;;16.43;;
6519;SDS011;3293;51.690;5.982;2024-01-06T01:17:28;26.60;;;16.27;;
6519;SDS011;3293;51.690;5.982;2024-01-06T01:22:29;23.30;;;13.73;;
6519;SDS011;3293;51.690;5.982;2024-01-06T01:27:28;22.60;;;14.77;;
6519;SDS011;3293;51.690;5.982;2024-01-06T01:32:28;29.07;;;14.60;;
6519;SDS011;3293;51.690;5.982;2024-01-06T01:37:28;23.43;;;12.80;;
6519;SDS011;3293;51.690;5.982;2024-01-06T01:42:28;23.03;;;12.50;;
6519;SDS011;3293;51.690;5.982;2024-01-06T01:47:28;22.93;;;13.73;;
6519;SDS011;3293;51.690;5.982;2024-01-06T01:52:29;20.90;;;13.27;;
6519;SDS011;3293;51.690;5.982;2024-01-06T01:57:30;23.37;;;13.30;;
6519;SDS011;3293;51.690;5.982;2024-01-06T02:02:31;21.23;;;12.40;;
6519;SDS011;3293;51.690;5.982;2024-01-06T02:07:31;19.83;;;12.60;;
6519;SDS011;3293;51.690;5.982;2024-01-06T02:12:31;17.07;;;11.77;;
6519;SDS011;3293;51.690;5.982;2024-01-06T02:17:31;16.83;;;11.00;;
6519;SDS011;3293;51.690;5.982;2024-01-06T02:22:37;19.23;;;10.20;;
6519;SDS011;3293;51.690;5.982;2024-01-06T02:27:38;14.90;;;10.00;;
6519;SDS011;3293;51.690;5.982;2024-01-06T02:32:38;14.90;;;10.30;;
6519;SDS011;3293;51.690;5.982;2024-01-06T02:37:38;14.77;;;9.50;;
6519;SDS011;3293;51.690;5.982;2024-01-06T02:42:38;16.43;;;10.23;;
6519;SDS011;3293;51.690;5.982;2024-01-06T02:47:38;15.63;;;10.67;;
6519;SDS011;3293;51.690;5.982;2024-01-06T02:52:38;13.93;;;9.40;;
6519;SDS011;3293;51.690;5.982;2024-01-06T02:57:38;13.87;;;9.67;;
6519;SDS011;3293;51.690;5.982;2024-01-06T03:02:38;14.27;;;9.23;;
6519;SDS011;3293;51.690;5.982;2024-01-06T03:07:41;15.50;;;9.57;;
6519;SDS011;3293;51.690;5.982;2024-01-06T03:12:41;14.97;;;9.93;;
6519;SDS011;3293;51.690;5.982;2024-01-06T03:17:40;17.77;;;11.03;;
6519;SDS011;3293;51.690;5.982;2024-01-06T03:22:40;17.00;;;10.87;;
6519;SDS011;3293;51.690;5.982;2024-01-06T03:27:40;14.80;;;10.33;;
6519;SDS011;3293;51.690;5.982;2024-01-06T03:32:40;15.50;;;10.27;;
6519;SDS011;3293;51.690;5.982;2024-01-06T03:37:40;16.67;;;10.87;;
6519;SDS011;3293;51.690;5.982;2024-01-06T03:42:40;17.57;;;10.77;;
6519;SDS011;3293;51.690;5.982;2024-01-06T03:47:40;22.30;;;12.00;;
6519;SDS011;3293;51.690;5.982;2024-01-06T03:52:40;18.17;;;11.33;;
6519;SDS011;3293;51.690;5.982;2024-01-06T03:57:40;19.10;;;11.70;;
6519;SDS011;3293;51.690;5.982;2024-01-06T04:02:40;19.67;;;12.27;;
6519;SDS011;3293;51.690;5.982;2024-01-06T04:07:40;21.47;;;12.10;;
6519;SDS011;3293;51.690;5.982;2024-01-06T04:12:40;21.47;;;12.63;;
6519;SDS011;3293;51.690;5.982;2024-01-06T04:17:39;21.90;;;12.97;;
6519;SDS011;3293;51.690;5.982;2024-01-06T04:22:39;22.87;;;12.73;;
6519;SDS011;3293;51.690;5.982;2024-01-06T04:27:39;20.40;;;12.93;;
6519;SDS011;3293;51.690;5.982;2024-01-06T04:32:39;22.43;;;11.90;;
6519;SDS011;3293;51.690;5.982;2024-01-06T04:37:39;22.03;;;14.03;;
6519;SDS011;3293;51.690;5.982;2024-01-06T04:42:39;19.30;;;12.43;;
6519;SDS011;3293;51.690;5.982;2024-01-06T04:47:39;20.17;;;12.27;;
6519;SDS011;3293;51.690;5.982;2024-01-06T04:52:39;21.17;;;12.73;;
6519;SDS011;3293;51.690;5.982;2024-01-06T04:57:39;20.50;;;12.00;;
6519;SDS011;3293;51.690;5.982;2024-01-06T05:02:39;18.83;;;11.97;;
6519;SDS011;3293;51.690;5.982;2024-01-06T05:07:39;21.63;;;12.20;;
6519;SDS011;3293;51.690;5.982;2024-01-06T05:12:39;19.07;;;11.97;;
6519;SDS011;3293;51.690;5.982;2024-01-06T05:17:39;19.23;;;11.90;;
6519;SDS011;3293;51.690;5.982;2024-01-06T05:22:39;18.57;;;11.93;;
6519;SDS011;3293;51.690;5.982;2024-01-06T05:27:39;15.43;;;10.13;;
6519;SDS011;3293;51.690;5.982;2024-01-06T05:32:39;17.00;;;11.00;;
6519;SDS011;3293;51.690;5.982;2024-01-06T05:37:38;20.47;;;11.73;;
6519;SDS011;3293;51.690;5.982;2024-01-06T05:42:39;19.53;;;11.70;;
6519;SDS011;3293;51.690;5.982;2024-01-06T05:47:39;20.83;;;11.87;;
6519;SDS011;3293;51.690;5.982;2024-01-06T05:52:39;17.30;;;10.97;;
6519;SDS011;3293;51.690;5.982;2024-01-06T05:57:39;22.27;;;12.30;;
6519;SDS011;3293;51.690;5.982;2024-01-06T06:02:39;19.47;;;12.73;;
6519;SDS011;3293;51.690;5.982;2024-01-06T06:07:39;21.00;;;12.87;;
6519;SDS011;3293;51.690;5.982;2024-01-06T06:12:39;23.17;;;13.57;;
6519;SDS011;3293;51.690;5.982;2024-01-06T06:17:39;23.63;;;14.10;;
6519;SDS011;3293;51.690;5.982;2024-01-06T06:22:39;21.83;;;13.53;;
6519;SDS011;3293;51.690;5.982;2024-01-06T06:27:39;27.57;;;14.47;;
6519;SDS011;3293;51.690;5.982;2024-01-06T06:32:39;25.80;;;14.87;;
6519;SDS011;3293;51.690;5.982;2024-01-06T06:37:39;27.47;;;14.20;;
6519;SDS011;3293;51.690;5.982;2024-01-06T06:42:39;24.60;;;13.30;;
6519;SDS011;3293;51.690;5.982;2024-01-06T06:47:38;20.57;;;13.17;;
6519;SDS011;3293;51.690;5.982;2024-01-06T06:52:38;24.13;;;13.03;;
6519;SDS011;3293;51.690;5.982;2024-01-06T06:57:38;26.77;;;14.63;;
6519;SDS011;3293;51.690;5.982;2024-01-06T07:02:38;23.23;;;13.93;;
6519;SDS011;3293;51.690;5.982;2024-01-06T07:07:38;19.33;;;12.57;;
6519;SDS011;3293;51.690;5.982;2024-01-06T07:12:38;19.80;;;12.03;;
6519;SDS011;3293;51.690;5.982;2024-01-06T07:17:38;21.77;;;13.60;;
6519;SDS011;3293;51.690;5.982;2024-01-06T07:22:38;17.43;;;12.50;;
6519;SDS011;3293;51.690;5.982;2024-01-06T07:27:38;20.20;;;13.33;;
6519;SDS011;3293;51.690;5.982;2024-01-06T07:32:39;18.33;;;12.37;;
6519;SDS011;3293;51.690;5.982;2024-01-06T07:37:39;21.77;;;12.90;;
6519;SDS011;3293;51.690;5.982;2024-01-06T07:42:38;27.03;;;12.80;;
6519;SDS011;3293;51.690;5.982;2024-01-06T07:47:38;26.97;;;15.40;;
6519;SDS011;3293;51.690;5.982;2024-01-06T07:52:38;26.67;;;15.83;;
6519;SDS011;3293;51.690;5.982;2024-01-06T07:57:38;23.53;;;14.57;;
6519;SDS011;3293;51.690;5.982;2024-01-06T08:02:38;26.90;;;16.23;;
6519;SDS011;3293;51.690;5.982;2024-01-06T08:07:38;25.03;;;15.23;;
6519;SDS011;3293;51.690;5.982;2024-01-06T08:12:38;25.77;;;14.97;;
6519;SDS011;3293;51.690;5.982;2024-01-06T08:17:38;26.07;;;14.83;;
6519;SDS011;3293;51.690;5.982;2024-01-06T08:22:40;22.00;;;13.53;;
6519;SDS011;3293;51.690;5.982;2024-01-06T08:27:40;23.07;;;14.17;;
6519;SDS011;3293;51.690;5.982;2024-01-06T08:32:39;22.13;;;14.87;;
6519;SDS011;3293;51.690;5.982;2024-01-06T08:37:39;22.30;;;15.23;;
6519;SDS011;3293;51.690;5.982;2024-01-06T08:42:39;24.30;;;14.73;;
6519;SDS011;3293;51.690;5.982;2024-01-06T08:47:39;23.63;;;17.47;;
6519;SDS011;3293;51.690;5.982;2024-01-06T08:52:39;22.57;;;15.23;;
6519;SDS011;3293;51.690;5.982;2024-01-06T08:57:39;22.77;;;14.63;;
6519;SDS011;3293;51.690;5.982;2024-01-06T09:02:39;21.33;;;15.10;;
6519;SDS011;3293;51.690;5.982;2024-01-06T09:07:39;21.27;;;14.40;;
6519;SDS011;3293;51.690;5.982;2024-01-06T09:12:39;25.23;;;15.80;;
6519;SDS011;3293;51.690;5.982;2024-01-06T09:17:39;27.47;;;16.77;;
6519;SDS011;3293;51.690;5.982;2024-01-06T09:22:39;25.30;;;15.63;;
6519;SDS011;3293;51.690;5.982;2024-01-06T09:27:39;30.83;;;17.67;;
6519;SDS011;3293;51.690;5.982;2024-01-06T09:32:39;21.77;;;15.10;;
6519;SDS011;3293;51.690;5.982;2024-01-06T09:37:39;20.57;;;14.70;;
6519;SDS011;3293;51.690;5.982;2024-01-06T09:42:40;24.07;;;15.10;;
6519;SDS011;3293;51.690;5.982;2024-01-06T09:47:40;26.20;;;14.90;;
6519;SDS011;3293;51.690;5.982;2024-01-06T09:52:40;25.10;;;15.53;;
6519;SDS011;3293;51.690;5.982;2024-01-06T09:57:41;30.23;;;17.67;;
6519;SDS011;3293;51.690;5.982;2024-01-06T10:02:44;20.40;;;14.40;;
6519;SDS011;3293;51.690;5.982;2024-01-06T10:07:45;20.57;;;14.43;;
6519;SDS011;3293;51.690;5.982;2024-01-06T10:12:46;20.67;;;13.17;;
6519;SDS011;3293;51.690;5.982;2024-01-06T10:17:46;20.90;;;13.70;;
6519;SDS011;3293;51.690;5.982;2024-01-06T10:22:46;25.27;;;14.50;;
6519;SDS011;3293;51.690;5.982;2024-01-06T10:27:46;27.37;;;16.60;;
6519;SDS011;3293;51.690;5.982;2024-01-06T10:32:46;20.77;;;15.17;;
6519;SDS011;3293;51.690;5.982;2024-01-06T10:37:45;22.33;;;13.33;;
6519;SDS011;3293;51.690;5.982;2024-01-06T10:42:48;30.43;;;18.03;;
6519;SDS011;3293;51.690;5.982;2024-01-06T10:47:47;24.10;;;16.03;;
6519;SDS011;3293;51.690;5.982;2024-01-06T10:52:48;25.43;;;15.20;;
6519;SDS011;3293;51.690;5.982;2024-01-06T10:57:49;27.83;;;15.33;;
6519;SDS011;3293;51.690;5.982;2024-01-06T11:02:51;30.90;;;16.93;;
6519;SDS011;3293;51.690;5.982;2024-01-06T11:07:53;27.50;;;16.67;;
6519;SDS011;3293;51.690;5.982;2024-01-06T11:13:05;26.00;;;16.47;;
6519;SDS011;3293;51.690;5.982;2024-01-06T11:18:32;27.60;;;15.43;;
6519;SDS011;3293;51.690;5.982;2024-01-06T11:23:38;28.10;;;16.63;;
6519;SDS011;3293;51.690;5.982;2024-01-06T11:28:47;30.93;;;17.53;;
6519;SDS011;3293;51.690;5.982;2024-01-06T11:33:47;31.97;;;18.10;;
6519;SDS011;3293;51.690;5.982;2024-01-06T11:38:50;27.30;;;17.27;;
6519;SDS011;3293;51.690;5.982;2024-01-06T11:43:51;31.93;;;17.10;;
6519;SDS011;3293;51.690;5.982;2024-01-06T11:48:51;33.23;;;18.13;;
6519;SDS011;3293;51.690;5.982;2024-01-06T11:53:52;29.47;;;17.10;;
6519;SDS011;3293;51.690;5.982;2024-01-06T11:58:52;30.73;;;17.20;;
6519;SDS011;3293;51.690;5.982;2024-01-06T12:03:53;28.53;;;16.77;;
6519;SDS011;3293;51.690;5.982;2024-01-06T12:09:02;31.53;;;18.63;;
6519;SDS011;3293;51.690;5.982;2024-01-06T12:14:06;29.43;;;17.83;;
6519;SDS011;3293;51.690;5.982;2024-01-06T12:19:06;29.30;;;16.80;;
6519;SDS011;3293;51.690;5.982;2024-01-06T12:24:13;25.93;;;17.27;;
6519;SDS011;3293;51.690;5.982;2024-01-06T12:29:19;30.77;;;17.30;;
6519;SDS011;3293;51.690;5.982;2024-01-06T12:34:20;28.63;;;18.03;;
6519;SDS011;3293;51.690;5.982;2024-01-06T12:39:21;27.73;;;17.07;;
6519;SDS011;3293;51.690;5.982;2024-01-06T12:44:22;25.53;;;16.13;;
6519;SDS011;3293;51.690;5.982;2024-01-06T12:49:25;29.57;;;17.50;;
6519;SDS011;3293;51.690;5.982;2024-01-06T12:54:25;32.07;;;17.87;;
6519;SDS011;3293;51.690;5.982;2024-01-06T12:59:25;31.50;;;17.97;;
6519;SDS011;3293;51.690;5.982;2024-01-06T13:04:25;36.40;;;20.50;;
6519;SDS011;3293;51.690;5.982;2024-01-06T13:09:25;30.47;;;18.60;;
6519;SDS011;3293;51.690;5.982;2024-01-06T13:14:28;23.57;;;15.80;;
6519;SDS011;3293;51.690;5.982;2024-01-06T13:19:29;30.73;;;19.50;;
6519;SDS011;3293;51.690;5.982;2024-01-06T13:24:29;29.83;;;16.83;;
6519;SDS011;3293;51.690;5.982;2024-01-06T13:29:29;28.73;;;17.23;;
6519;SDS011;3293;51.690;5.982;2024-01-06T13:34:29;31.13;;;17.63;;
6519;SDS011;3293;51.690;5.982;2024-01-06T13:39:29;26.53;;;17.10;;
6519;SDS011;3293;51.690;5.982;2024-01-06T13:44:29;22.23;;;15.60;;
6519;SDS011;3293;51.690;5.982;2024-01-06T13:49:29;27.13;;;17.03;;
6519;SDS011;3293;51.690;5.982;2024-01-06T13:54:29;24.10;;;15.83;;
6519;SDS011;3293;51.690;5.982;2024-01-06T13:59:29;25.00;;;15.67;;
6519;SDS011;3293;51.690;5.982;2024-01-06T14:04:29;22.53;;;14.10;;
6519;SDS011;3293;51.690;5.982;2024-01-06T14:09:29;24.30;;;15.00;;
6519;SDS011;3293;51.690;5.982;2024-01-06T14:14:30;23.73;;;15.13;;
6519;SDS011;3293;51.690;5.982;2024-01-06T14:19:31;23.43;;;16.23;;
6519;SDS011;3293;51.690;5.982;2024-01-06T14:24:30;26.17;;;16.13;;
6519;SDS011;3293;51.690;5.982;2024-01-06T14:29:30;24.33;;;16.40;;
6519;SDS011;3293;51.690;5.982;2024-01-06T14:34:30;24.37;;;15.77;;
6519;SDS011;3293;51.690;5.982;2024-01-06T14:39:30;26.30;;;16.33;;
6519;SDS011;3293;51.690;5.982;2024-01-06T14:44:30;31.73;;;16.50;;
6519;SDS011;3293;51.690;5.982;2024-01-06T14:49:31;23.90;;;16.57;;
6519;SDS011;3293;51.690;5.982;2024-01-06T14:54:30;29.10;;;16.53;;
6519;SDS011;3293;51.690;5.982;2024-01-06T14:59:32;30.23;;;17.67;;
6519;SDS011;3293;51.690;5.982;2024-01-06T15:04:32;27.40;;;17.47;;
6519;SDS011;3293;51.690;5.982;2024-01-06T15:09:32;27.37;;;17.87;;
6519;SDS011;3293;51.690;5.982;2024-01-06T15:14:32;24.27;;;16.77;;
6519;SDS011;3293;51.690;5.982;2024-01-06T15:19:32;27.23;;;17.00;;
6519;SDS011;3293;51.690;5.982;2024-01-06T15:24:32;25.20;;;16.77;;
6519;SDS011;3293;51.690;5.982;2024-01-06T15:29:32;26.63;;;17.33;;
6519;SDS011;3293;51.690;5.982;2024-01-06T15:34:32;27.07;;;17.43;;
6519;SDS011;3293;51.690;5.982;2024-01-06T15:39:32;30.57;;;18.70;;
6519;SDS011;3293;51.690;5.982;2024-01-06T15:44:32;31.60;;;18.30;;
6519;SDS011;3293;51.690;5.982;2024-01-06T15:49:33;30.27;;;19.07;;
6519;SDS011;3293;51.690;5.982;2024-01-06T15:54:33;31.40;;;19.03;;
6519;SDS011;3293;51.690;5.982;2024-01-06T15:59:33;28.27;;;17.67;;
6519;SDS011;3293;51.690;5.982;2024-01-06T16:04:33;28.43;;;18.40;;
6519;SDS011;3293;51.690;5.982;2024-01-06T16:09:33;28.20;;;18.17;;
6519;SDS011;3293;51.690;5.982;2024-01-06T16:14:33;29.40;;;18.07;;
6519;SDS011;3293;51.690;5.982;2024-01-06T16:19:33;33.57;;;18.77;;
6519;SDS011;3293;51.690;5.982;2024-01-06T16:24:33;27.40;;;16.67;;
6519;SDS011;3293;51.690;5.982;2024-01-06T16:29:35;27.33;;;18.13;;
6519;SDS011;3293;51.690;5.982;2024-01-06T16:34:37;27.67;;;17.17;;
6519;SDS011;3293;51.690;5.982;2024-01-06T16:39:39;27.90;;;16.60;;
6519;SDS011;3293;51.690;5.982;2024-01-06T16:44:39;28.47;;;17.20;;
6519;SDS011;3293;51.690;5.982;2024-01-06T16:49:39;29.40;;;17.97;;
6519;SDS011;3293;51.690;5.982;2024-01-06T16:54:39;27.70;;;18.67;;
6519;SDS011;3293;51.690;5.982;2024-01-06T16:59:41;26.80;;;18.33;;
6519;SDS011;3293;51.690;5.982;2024-01-06T17:04:41;33.43;;;20.07;;
6519;SDS011;3293;51.690;5.982;2024-01-06T17:09:41;30.50;;;20.17;;
6519;SDS011;3293;51.690;5.982;2024-01-06T17:14:43;34.03;;;20.27;;
6519;SDS011;3293;51.690;5.982;2024-01-06T17:19:43;29.93;;;18.63;;
6519;SDS011;3293;51.690;5.982;2024-01-06T17:24:43;32.43;;;21.40;;
6519;SDS011;3293;51.690;5.982;2024-01-06T17:29:43;33.90;;;19.07;;
6519;SDS011;3293;51.690;5.982;2024-01-06T17:34:43;31.80;;;19.57;;
6519;SDS011;3293;51.690;5.982;2024-01-06T17:39:43;34.23;;;19.90;;
6519;SDS011;3293;51.690;5.982;2024-01-06T17:44:43;33.10;;;20.70;;
6519;SDS011;3293;51.690;5.982;2024-01-06T17:49:45;35.63;;;22.10;;
6519;SDS011;3293;51.690;5.982;2024-01-06T17:54:45;29.50;;;19.23;;
6519;SDS011;3293;51.690;5.982;2024-01-06T17:59:45;27.10;;;18.00;;
6519;SDS011;3293;51.690;5.982;2024-01-06T18:04:45;27.20;;;17.03;;
6519;SDS011;3293;51.690;5.982;2024-01-06T18:09:45;23.57;;;17.03;;
6519;SDS011;3293;51.690;5.982;2024-01-06T18:14:45;23.90;;;16.27;;
6519;SDS011;3293;51.690;5.982;2024-01-06T18:19:45;24.30;;;15.43;;
6519;SDS011;3293;51.690;5.982;2024-01-06T18:24:45;27.47;;;16.90;;
6519;SDS011;3293;51.690;5.982;2024-01-06T18:29:45;37.03;;;21.57;;
6519;SDS011;3293;51.690;5.982;2024-01-06T18:34:47;28.93;;;17.60;;
6519;SDS011;3293;51.690;5.982;2024-01-06T18:39:47;21.83;;;15.60;;
6519;SDS011;3293;51.690;5.982;2024-01-06T18:44:47;24.90;;;16.50;;
6519;SDS011;3293;51.690;5.982;2024-01-06T18:49:47;25.57;;;16.87;;
6519;SDS011;3293;51.690;5.982;2024-01-06T18:54:47;26.33;;;18.00;;
6519;SDS011;3293;51.690;5.982;2024-01-06T18:59:47;31.83;;;19.90;;
6519;SDS011;3293;51.690;5.982;2024-01-06T19:04:47;25.83;;;18.70;;
6519;SDS011;3293;51.690;5.982;2024-01-06T19:09:47;32.23;;;20.17;;
6519;SDS011;3293;51.690;5.982;2024-01-06T19:14:47;29.30;;;19.07;;
6519;SDS011;3293;51.690;5.982;2024-01-06T19:19:48;29.20;;;18.47;;
6519;SDS011;3293;51.690;5.982;2024-01-06T19:24:48;31.57;;;20.03;;
6519;SDS011;3293;51.690;5.982;2024-01-06T19:29:48;31.27;;;20.13;;
6519;SDS011;3293;51.690;5.982;2024-01-06T19:34:49;30.57;;;18.70;;
6519;SDS011;3293;51.690;5.982;2024-01-06T19:39:53;32.10;;;19.80;;
6519;SDS011;3293;51.690;5.982;2024-01-06T19:44:53;35.00;;;21.53;;
6519;SDS011;3293;51.690;5.982;2024-01-06T19:49:53;31.23;;;19.47;;
6519;SDS011;3293;51.690;5.982;2024-01-06T19:54:54;29.37;;;19.30;;
6519;SDS011;3293;51.690;5.982;2024-01-06T19:59:54;33.53;;;21.10;;
6519;SDS011;3293;51.690;5.982;2024-01-06T20:04:54;34.13;;;20.70;;
6519;SDS011;3293;51.690;5.982;2024-01-06T20:09:54;28.93;;;19.63;;
6519;SDS011;3293;51.690;5.982;2024-01-06T20:14:55;31.57;;;20.33;;
6519;SDS011;3293;51.690;5.982;2024-01-06T20:19:56;27.83;;;19.13;;
6519;SDS011;3293;51.690;5.982;2024-01-06T20:24:56;27.27;;;19.20;;
6519;SDS011;3293;51.690;5.982;2024-01-06T20:29:56;29.30;;;19.53;;
6519;SDS011;3293;51.690;5.982;2024-01-06T20:34:56;31.37;;;21.43;;
6519;SDS011;3293;51.690;5.982;2024-01-06T20:39:57;31.87;;;20.23;;
6519;SDS011;3293;51.690;5.982;2024-01-06T20:44:57;31.03;;;19.93;;
6519;SDS011;3293;51.690;5.982;2024-01-06T20:49:57;31.27;;;19.47;;
6519;SDS011;3293;51.690;5.982;2024-01-06T20:54:57;29.13;;;18.60;;
6519;SDS011;3293;51.690;5.982;2024-01-06T20:59:58;28.70;;;18.43;;
6519;SDS011;3293;51.690;5.982;2024-01-06T21:04:58;31.03;;;20.57;;
6519;SDS011;3293;51.690;5.982;2024-01-06T21:10:03;30.77;;;19.97;;
6519;SDS011;3293;51.690;5.982;2024-01-06T21:15:03;31.60;;;19.20;;
6519;SDS011;3293;51.690;5.982;2024-01-06T21:20:03;26.60;;;18.33;;
6519;SDS011;3293;51.690;5.982;2024-01-06T21:25:04;31.20;;;19.00;;
6519;SDS011;3293;51.690;5.982;2024-01-06T21:30:04;27.93;;;19.57;;
6519;SDS011;3293;51.690;5.982;2024-01-06T21:35:05;34.93;;;20.30;;
6519;SDS011;3293;51.690;5.982;2024-01-06T21:40:06;32.13;;;19.97;;
6519;SDS011;3293;51.690;5.982;2024-01-06T21:45:07;32.33;;;19.47;;
6519;SDS011;3293;51.690;5.982;2024-01-06T21:50:08;32.70;;;18.67;;
6519;SDS011;3293;51.690;5.982;2024-01-06T21:55:09;28.70;;;19.20;;
6519;SDS011;3293;51.690;5.982;2024-01-06T22:00:09;34.97;;;23.10;;
6519;SDS011;3293;51.690;5.982;2024-01-06T22:05:15;33.83;;;20.97;;
6519;SDS011;3293;51.690;5.982;2024-01-06T22:10:18;33.93;;;21.77;;
6519;SDS011;3293;51.690;5.982;2024-01-06T22:15:18;32.07;;;20.23;;
6519;SDS011;3293;51.690;5.982;2024-01-06T22:20:18;31.10;;;19.30;;
6519;SDS011;3293;51.690;5.982;2024-01-06T22:25:18;25.67;;;17.40;;
6519;SDS011;3293;51.690;5.982;2024-01-06T22:30:18;31.30;;;19.77;;
6519;SDS011;3293;51.690;5.982;2024-01-06T22:35:18;28.13;;;19.40;;
6519;SDS011;3293;51.690;5.982;2024-01-06T22:40:18;30.97;;;19.23;;
6519;SDS011;3293;51.690;5.982;2024-01-06T22:45:19;32.37;;;20.50;;
6519;SDS011;3293;51.690;5.982;2024-01-06T22:50:22;30.90;;;20.53;;
6519;SDS011;3293;51.690;5.982;2024-01-06T22:55:22;34.37;;;21.67;;
6519;SDS011;3293;51.690;5.982;2024-01-06T23:00:22;33.70;;;20.33;;
6519;SDS011;3293;51.690;5.982;2024-01-06T23:05:28;30.13;;;19.47;;
6519;SDS011;3293;51.690;5.982;2024-01-06T23:10:28;28.90;;;20.47;;
6519;SDS011;3293;51.690;5.982;2024-01-06T23:15:28;27.23;;;18.50;;
6519;SDS011;3293;51.690;5.982;2024-01-06T23:20:28;28.97;;;17.93;;
6519;SDS011;3293;51.690;5.982;2024-01-06T23:25:28;28.90;;;18.30;;
6519;SDS011;3293;51.690;5.982;2024-01-06T23:30:28;27.97;;;17.77;;
6519;SDS011;3293;51.690;5.982;2024-01-06T23:35:28;31.03;;;20.40;;
6519;SDS011;3293;51.690;5.982;2024-01-06T23:40:29;30.23;;;17.90;;
6519;SDS011;3293;51.690;5.982;2024-01-06T23:45:29;33.07;;;20.63;;
6519;SDS011;3293;51.690;5.982;2024-01-06T23:50:29;35.00;;;20.37;;
6519;SDS011;3293;51.690;5.982;2024-01-06T23:55:29;33.20;;;20.57;;
